createdAt,value
2019-05-28T00:00:44.570Z,196.00
2019-05-28T00:01:44.557Z,220.00
2019-05-28T00:02:44.547Z,244.00
2019-05-28T00:03:44.538Z,272.00
2019-05-28T00:04:44.526Z,300.00
2019-05-28T00:05:44.563Z,332.00
2019-05-28T00:06:44.504Z,364.00
2019-05-28T00:07:44.491Z,400.00
2019-05-28T00:08:44.485Z,436.00
2019-05-28T00:09:44.474Z,476.00
2019-05-28T00:10:44.463Z,516.00
2019-05-28T00:11:44.601Z,560.00
2019-05-28T00:12:44.439Z,600.00
2019-05-28T00:13:44.430Z,648.00
2019-05-28T00:14:44.417Z,696.00
2019-05-28T00:15:44.408Z,748.00
2019-05-28T00:16:44.396Z,796.00
2019-05-28T00:17:44.435Z,848.00
2019-05-28T00:18:44.373Z,900.00
2019-05-28T00:19:44.363Z,956.00
2019-05-28T00:20:44.351Z,1012.00
2019-05-28T00:21:44.340Z,1088.00
2019-05-28T00:22:44.383Z,1184.00
2019-05-28T00:23:44.321Z,1348.00
2019-05-28T00:24:44.309Z,1716.00
2019-05-28T00:25:44.300Z,2084.00
2019-05-28T00:26:44.292Z,2312.00
2019-05-28T00:27:44.427Z,2528.00
2019-05-28T00:28:44.265Z,2852.00
2019-05-28T00:29:44.254Z,3132.00
2019-05-28T00:30:44.246Z,3324.00
2019-05-28T00:31:44.236Z,3532.00
2019-05-28T00:32:44.221Z,3696.00
2019-05-28T00:33:44.263Z,4084.00
2019-05-28T00:34:44.203Z,4476.00
2019-05-28T00:35:44.189Z,4864.00
2019-05-28T00:36:44.179Z,5004.00
2019-05-28T00:37:44.170Z,5200.00
2019-05-28T00:38:44.160Z,5396.00
2019-05-28T00:39:44.246Z,5612.00
2019-05-28T00:40:44.133Z,5836.00
2019-05-28T00:41:44.123Z,6016.00
2019-05-28T00:42:44.119Z,6176.00
2019-05-28T00:43:44.104Z,6384.00
2019-05-28T00:44:44.092Z,6644.00
2019-05-28T00:45:44.331Z,6808.00
2019-05-28T00:46:44.071Z,7000.00
2019-05-28T00:47:44.066Z,7268.00
2019-05-28T00:48:44.051Z,7572.00
2019-05-28T00:49:44.043Z,7820.00
2019-05-28T00:50:44.027Z,8092.00
2019-05-28T00:51:44.117Z,8192.00
2019-05-28T00:52:44.007Z,8340.00
2019-05-28T00:53:43.999Z,8496.00
2019-05-28T00:54:43.987Z,8768.00
2019-05-28T00:55:43.977Z,8808.00
2019-05-28T00:56:43.975Z,9196.00
2019-05-28T00:57:44.004Z,9428.00
2019-05-28T00:58:43.945Z,9636.00
2019-05-28T00:59:43.941Z,9600.00
2019-05-28T01:00:43.926Z,9964.00
2019-05-28T01:01:43.914Z,10624.00
2019-05-28T01:02:43.904Z,10828.00
2019-05-28T01:04:43.942Z,10144.00
2019-05-28T01:05:43.873Z,10716.00
2019-05-28T01:06:43.977Z,10652.00
2019-05-28T01:07:43.857Z,10872.00
2019-05-28T01:08:43.839Z,11228.00
2019-05-28T01:09:43.860Z,11720.00
2019-05-28T01:10:43.869Z,12428.00
2019-05-28T01:11:43.809Z,13176.00
2019-05-28T01:12:43.800Z,13568.00
2019-05-28T01:13:43.785Z,13972.00
2019-05-28T01:14:43.774Z,13820.00
2019-05-28T01:15:43.763Z,15020.00
2019-05-28T01:16:43.802Z,19968.00
2019-05-28T01:17:43.741Z,28032.00
2019-05-28T01:18:43.730Z,33280.00
2019-05-28T01:19:43.721Z,30528.00
2019-05-28T01:20:43.708Z,28928.00
2019-05-28T01:21:43.702Z,35584.00
2019-05-28T01:22:43.863Z,42496.00
2019-05-28T01:23:43.679Z,43232.00
2019-05-28T01:24:43.671Z,46624.00
2019-05-28T01:25:43.659Z,48704.00
2019-05-28T01:26:43.651Z,47936.00
2019-05-28T01:27:43.638Z,45344.00
2019-05-28T01:28:43.679Z,44608.00
2019-05-28T01:29:43.614Z,53728.00
2019-05-28T01:30:54.665Z,62688.00
2019-05-28T01:31:44.692Z,61152.00
2019-05-28T01:32:43.588Z,49600.00
2019-05-28T01:33:43.574Z,47136.00
2019-05-28T01:34:43.613Z,48640.00
2019-05-28T01:35:43.556Z,48416.00
2019-05-28T01:36:43.547Z,47648.00
2019-05-28T01:37:43.532Z,47488.00
2019-05-28T01:38:43.521Z,48480.00
2019-05-28T01:39:43.515Z,52640.00
2019-05-28T01:40:43.653Z,55936.00
2019-05-28T01:41:43.491Z,55232.00
2019-05-28T01:42:43.483Z,54656.00
2019-05-28T01:43:43.469Z,56160.00
2019-05-28T01:44:43.461Z,54080.00
2019-05-28T01:45:43.451Z,47936.00
2019-05-28T01:46:43.536Z,52768.00
2019-05-28T01:47:43.432Z,61920.00
2019-05-28T01:48:43.421Z,62016.00
2019-05-28T01:49:43.409Z,63424.00
2019-05-28T01:50:43.399Z,66688.00
2019-05-28T01:51:43.388Z,64640.00
2019-05-28T01:52:43.428Z,62880.00
2019-05-28T01:53:43.366Z,64512.00
2019-05-28T01:54:43.355Z,66976.00
2019-05-28T01:55:43.344Z,72288.00
2019-05-28T01:56:43.335Z,69376.00
2019-05-28T01:57:43.327Z,69472.00
2019-05-28T01:58:43.467Z,73696.00
2019-05-28T01:59:43.307Z,81536.00
2019-05-28T02:00:43.299Z,84480.00
2019-05-28T02:01:43.285Z,78784.00
2019-05-28T02:02:43.321Z,70976.00
2019-05-28T02:03:43.267Z,69536.00
2019-05-28T02:04:43.314Z,76032.00
2019-05-28T02:05:43.247Z,79776.00
2019-05-28T02:06:43.239Z,72192.00
2019-05-28T02:07:43.228Z,61888.00
2019-05-28T02:08:43.217Z,57760.00
2019-05-28T02:09:43.206Z,54240.00
2019-05-28T02:10:43.248Z,54784.00
2019-05-28T02:11:43.195Z,54944.00
2019-05-28T02:12:43.177Z,55136.00
2019-05-28T02:13:43.167Z,53088.00
2019-05-28T02:14:43.158Z,53408.00
2019-05-28T02:15:43.145Z,51584.00
2019-05-28T02:16:43.284Z,49280.00
2019-05-28T02:17:43.136Z,49184.00
2019-05-28T02:18:43.117Z,47648.00
2019-05-28T02:19:43.105Z,45248.00
2019-05-28T02:20:43.095Z,44832.00
2019-05-28T02:21:43.083Z,44960.00
2019-05-28T02:22:43.126Z,46656.00
2019-05-28T02:23:43.064Z,49056.00
2019-05-28T02:24:43.059Z,48064.00
2019-05-28T02:25:43.043Z,44448.00
2019-05-28T02:26:43.033Z,46272.00
2019-05-28T02:27:43.028Z,49600.00
2019-05-28T02:28:43.111Z,49120.00
2019-05-28T02:29:43.015Z,46944.00
2019-05-28T02:30:43.001Z,44256.00
2019-05-28T02:31:42.982Z,43232.00
2019-05-28T02:32:42.973Z,42688.00
2019-05-28T02:33:42.963Z,44608.00
2019-05-28T02:34:43.105Z,45696.00
2019-05-28T02:35:42.944Z,46688.00
2019-05-28T02:36:42.936Z,47552.00
2019-05-28T02:37:42.927Z,48320.00
2019-05-28T02:38:42.920Z,47424.00
2019-05-28T02:39:42.905Z,48096.00
2019-05-28T02:40:42.999Z,47104.00
2019-05-28T02:41:42.888Z,46816.00
2019-05-28T02:42:42.874Z,49600.00
2019-05-28T02:43:42.867Z,49664.00
2019-05-28T02:44:42.855Z,47008.00
2019-05-28T02:45:42.848Z,48800.00
2019-05-28T02:46:42.888Z,49632.00
2019-05-28T02:47:42.823Z,46496.00
2019-05-28T02:48:42.818Z,45088.00
2019-05-28T02:49:42.807Z,42368.00
2019-05-28T02:50:42.798Z,46912.00
2019-05-28T02:51:42.787Z,47328.00
2019-05-28T02:52:42.929Z,45856.00
2019-05-28T02:53:42.767Z,43232.00
2019-05-28T02:54:42.758Z,42400.00
2019-05-28T02:55:42.749Z,40896.00
2019-05-28T02:56:42.738Z,40352.00
2019-05-28T02:57:42.730Z,40608.00
2019-05-28T02:58:42.771Z,41888.00
2019-05-28T02:59:42.712Z,42592.00
2019-05-28T03:00:42.707Z,41632.00
2019-05-28T03:01:44.631Z,41632.00
2019-05-28T03:02:42.684Z,42912.00
2019-05-28T03:03:42.670Z,40192.00
2019-05-28T03:04:42.761Z,38912.00
2019-05-28T03:05:42.657Z,41696.00
2019-05-28T03:06:42.643Z,44864.00
2019-05-28T03:07:42.637Z,45376.00
2019-05-28T03:08:42.623Z,44512.00
2019-05-28T03:09:42.614Z,44352.00
2019-05-28T03:11:03.083Z,44416.00
2019-05-28T03:11:43.696Z,44768.00
2019-05-28T03:12:42.589Z,43680.00
2019-05-28T03:13:42.575Z,43552.00
2019-05-28T03:14:42.564Z,43872.00
2019-05-28T03:15:42.560Z,44480.00
2019-05-28T03:16:42.596Z,43872.00
2019-05-28T03:17:42.538Z,43104.00
2019-05-28T03:18:42.525Z,41056.00
2019-05-28T03:19:42.514Z,40544.00
2019-05-28T03:20:42.506Z,41152.00
2019-05-28T03:21:42.497Z,42016.00
2019-05-28T03:22:42.589Z,41760.00
2019-05-28T03:23:42.479Z,40128.00
2019-05-28T03:24:42.470Z,41792.00
2019-05-28T03:25:42.457Z,42240.00
2019-05-28T03:26:42.450Z,42976.00
2019-05-28T03:27:42.438Z,42656.00
2019-05-28T03:28:42.578Z,41248.00
2019-05-28T03:29:42.420Z,40160.00
2019-05-28T03:30:42.413Z,39392.00
2019-05-28T03:31:42.412Z,41536.00
2019-05-28T03:32:42.403Z,40224.00
2019-05-28T03:33:42.389Z,40288.00
2019-05-28T03:34:42.500Z,40576.00
2019-05-28T03:35:42.365Z,43136.00
2019-05-28T03:36:42.358Z,42880.00
2019-05-28T03:37:42.344Z,41792.00
2019-05-28T03:38:42.334Z,41280.00
2019-05-28T03:39:42.325Z,40736.00
2019-05-28T03:40:42.414Z,41760.00
2019-05-28T03:41:42.305Z,41600.00
2019-05-28T03:42:42.294Z,39904.00
2019-05-28T03:43:42.289Z,39584.00
2019-05-28T03:44:42.275Z,40256.00
2019-05-28T03:45:42.266Z,39680.00
2019-05-28T03:46:42.406Z,38656.00
2019-05-28T03:47:42.249Z,37984.00
2019-05-28T03:48:42.236Z,38816.00
2019-05-28T03:49:42.229Z,41280.00
2019-05-28T03:50:42.225Z,39872.00
2019-05-28T03:51:42.209Z,39424.00
2019-05-28T03:52:42.249Z,42336.00
2019-05-28T03:53:42.187Z,42048.00
2019-05-28T03:54:42.178Z,41664.00
2019-05-28T03:55:42.173Z,40960.00
2019-05-28T03:56:42.159Z,41152.00
2019-05-28T03:57:42.151Z,39232.00
2019-05-28T03:58:42.242Z,38432.00
2019-05-28T03:59:42.131Z,39168.00
2019-05-28T04:00:42.130Z,41408.00
2019-05-28T04:01:42.121Z,42176.00
2019-05-28T04:02:42.102Z,40224.00
2019-05-28T04:03:42.091Z,39424.00
2019-05-28T04:04:42.234Z,39136.00
2019-05-28T04:05:42.075Z,38784.00
2019-05-28T04:06:42.063Z,39808.00
2019-05-28T04:07:42.055Z,39968.00
2019-05-28T04:08:42.046Z,36832.00
2019-05-28T04:09:42.134Z,36736.00
2019-05-28T04:10:42.023Z,38432.00
2019-05-28T04:11:45.109Z,37504.00
2019-05-28T04:12:42.007Z,36736.00
2019-05-28T04:13:42.000Z,36800.00
2019-05-28T04:14:41.989Z,37120.00
2019-05-28T04:15:42.026Z,36928.00
2019-05-28T04:16:41.968Z,35392.00
2019-05-28T04:17:41.955Z,33760.00
2019-05-28T04:18:41.946Z,34368.00
2019-05-28T04:19:41.937Z,34496.00
2019-05-28T04:20:42.930Z,33312.00
2019-05-28T04:21:41.919Z,32736.00
2019-05-28T04:22:41.908Z,33472.00
2019-05-28T04:23:42.104Z,32928.00
2019-05-28T04:24:41.891Z,31584.00
2019-05-28T04:25:41.881Z,30336.00
2019-05-28T04:26:41.921Z,30176.00
2019-05-28T04:27:41.897Z,30176.00
2019-05-28T04:28:41.851Z,29568.00
2019-05-28T04:29:41.850Z,27424.00
2019-05-28T04:30:41.831Z,26592.00
2019-05-28T04:31:41.871Z,26848.00
2019-05-28T04:32:41.818Z,27648.00
2019-05-28T04:33:41.799Z,26720.00
2019-05-28T04:34:41.791Z,25760.00
2019-05-28T04:35:41.780Z,25472.00
2019-05-28T04:36:41.770Z,25600.00
2019-05-28T04:37:41.861Z,24832.00
2019-05-28T04:38:41.751Z,25056.00
2019-05-28T04:39:41.743Z,26112.00
2019-05-28T04:40:41.732Z,24640.00
2019-05-28T04:41:41.721Z,19584.00
2019-05-28T04:42:41.959Z,13780.00
2019-05-28T04:43:41.701Z,10080.00
2019-05-28T04:44:41.690Z,9380.00
2019-05-28T04:45:41.680Z,9084.00
2019-05-28T04:46:41.668Z,8916.00
2019-05-28T04:47:41.662Z,8720.00
2019-05-28T04:48:41.701Z,8568.00
2019-05-28T04:49:41.643Z,8464.00
2019-05-28T04:50:41.630Z,8332.00
2019-05-28T04:51:41.620Z,8244.00
2019-05-28T04:52:41.664Z,8116.00
2019-05-28T04:53:41.603Z,8000.00
2019-05-28T04:54:41.753Z,7900.00
2019-05-28T04:55:41.581Z,7788.00
2019-05-28T04:56:41.585Z,7700.00
2019-05-28T04:57:41.560Z,7608.00
2019-05-28T04:58:41.551Z,7508.00
2019-05-28T04:59:41.614Z,7424.00
2019-05-28T05:00:41.686Z,7360.00
2019-05-28T05:01:41.521Z,7288.00
2019-05-28T05:02:57.715Z,7216.00
2019-05-28T05:04:06.311Z,7128.00
2019-05-28T05:05:06.299Z,7032.00
2019-05-28T05:06:06.341Z,6960.00
2019-05-28T05:07:06.281Z,6880.00
2019-05-28T05:08:06.284Z,6812.00
2019-05-28T05:09:06.259Z,6740.00
2019-05-28T05:10:06.248Z,6664.00
2019-05-28T05:11:06.239Z,6592.00
2019-05-28T05:12:06.281Z,6516.00
2019-05-28T05:13:06.220Z,6452.00
2019-05-28T05:14:06.210Z,6376.00
2019-05-28T05:15:06.234Z,6304.00
2019-05-28T05:16:06.188Z,6236.00
2019-05-28T05:17:06.179Z,6176.00
2019-05-28T05:18:06.319Z,6124.00
2019-05-28T05:19:06.160Z,6064.00
2019-05-28T05:20:06.153Z,5984.00
2019-05-28T05:21:06.140Z,5940.00
2019-05-28T05:22:06.145Z,5904.00
2019-05-28T05:23:06.117Z,5852.00
2019-05-28T05:24:06.157Z,5804.00
2019-05-28T05:25:06.095Z,5748.00
2019-05-28T05:26:06.088Z,5688.00
2019-05-28T05:27:06.078Z,5640.00
2019-05-28T05:28:06.067Z,5592.00
2019-05-28T05:29:06.057Z,5540.00
2019-05-28T05:30:06.100Z,5492.00
2019-05-28T05:31:06.061Z,5444.00
2019-05-28T05:32:06.026Z,5404.00
2019-05-28T05:33:19.403Z,5360.00
2019-05-28T05:34:30.817Z,5308.00
2019-05-28T05:35:31.807Z,5268.00
2019-05-28T05:36:30.799Z,5224.00
2019-05-28T05:37:30.787Z,5188.00
2019-05-28T05:38:30.775Z,5152.00
2019-05-28T05:39:30.768Z,5104.00
2019-05-28T05:40:30.759Z,5052.00
2019-05-28T05:42:30.839Z,4948.00
2019-05-28T05:43:30.727Z,4864.00
2019-05-28T05:44:30.720Z,4684.00
2019-05-28T05:45:30.709Z,4396.00
2019-05-28T05:46:30.722Z,4164.00
2019-05-28T05:47:30.703Z,4068.00
2019-05-28T05:48:30.796Z,4036.00
2019-05-28T05:49:30.669Z,4012.00
2019-05-28T05:50:30.659Z,3988.00
2019-05-28T05:51:30.650Z,3968.00
2019-05-28T05:52:30.640Z,3944.00
2019-05-28T05:53:30.633Z,3928.00
2019-05-28T05:54:30.672Z,3908.00
2019-05-28T05:55:30.614Z,3888.00
2019-05-28T05:56:30.602Z,3868.00
2019-05-28T05:57:30.591Z,3844.00
2019-05-28T05:58:30.584Z,3824.00
2019-05-28T05:59:30.572Z,3800.00
2019-05-28T06:00:30.611Z,3776.00
2019-05-28T06:01:30.550Z,3756.00
2019-05-28T06:02:30.541Z,3740.00
2019-05-28T06:03:40.414Z,3720.00
2019-05-28T06:04:55.331Z,3696.00
2019-05-28T06:05:55.375Z,3680.00
2019-05-28T06:06:55.315Z,3656.00
2019-05-28T06:07:55.320Z,3636.00
2019-05-28T06:08:55.295Z,3620.00
2019-05-28T06:09:55.281Z,3604.00
2019-05-28T06:10:55.270Z,3592.00
2019-05-28T06:11:55.318Z,3584.00
2019-05-28T06:12:55.250Z,3580.00
2019-05-28T06:13:55.240Z,3576.00
2019-05-28T06:14:55.294Z,3568.00
2019-05-28T06:15:55.219Z,3560.00
2019-05-28T06:16:55.210Z,3552.00
2019-05-28T06:17:55.249Z,3540.00
2019-05-28T06:18:55.435Z,3536.00
2019-05-28T06:19:55.180Z,3524.00
2019-05-28T06:21:09.322Z,3516.00
2019-05-28T06:22:20.027Z,3504.00
2019-05-28T06:23:20.059Z,3488.00
2019-05-28T06:24:19.954Z,3484.00
2019-05-28T06:25:19.974Z,3484.00
2019-05-28T06:26:19.940Z,3484.00
2019-05-28T06:27:19.921Z,3480.00
2019-05-28T06:28:19.917Z,3472.00
2019-05-28T06:29:19.949Z,3464.00
2019-05-28T06:30:19.888Z,3448.00
2019-05-28T06:31:19.876Z,3440.00
2019-05-28T06:32:19.869Z,3432.00
2019-05-28T06:33:19.857Z,3416.00
2019-05-28T06:34:19.848Z,3408.00
2019-05-28T06:35:19.888Z,3400.00
2019-05-28T06:36:19.826Z,3392.00
2019-05-28T06:37:19.816Z,3388.00
2019-05-28T06:38:19.898Z,3384.00
2019-05-28T06:39:19.793Z,3380.00
2019-05-28T06:40:19.935Z,3376.00
2019-05-28T06:41:19.773Z,3372.00
2019-05-28T06:42:19.762Z,3364.00
2019-05-28T06:43:19.759Z,3360.00
2019-05-28T06:44:19.742Z,3356.00
2019-05-28T06:45:19.733Z,3348.00
2019-05-28T06:46:19.868Z,3352.00
2019-05-28T06:47:19.714Z,3344.00
2019-05-28T06:48:19.709Z,3336.00
2019-05-28T06:49:19.690Z,3328.00
2019-05-28T06:50:19.681Z,3324.00
2019-05-28T06:51:19.673Z,3324.00
2019-05-28T06:52:19.772Z,3320.00
2019-05-28T06:53:19.651Z,3312.00
2019-05-28T06:54:19.644Z,3304.00
2019-05-28T06:55:19.634Z,3292.00
2019-05-28T06:56:19.624Z,3284.00
2019-05-28T06:57:22.844Z,3272.00
2019-05-28T06:58:35.625Z,3268.00
2019-05-28T06:59:44.403Z,3260.00
2019-05-28T07:00:44.392Z,3256.00
2019-05-28T07:01:44.380Z,3248.00
2019-05-28T07:02:44.399Z,3244.00
2019-05-28T07:03:44.407Z,3244.00
2019-05-28T07:04:44.349Z,3240.00
2019-05-28T07:05:44.341Z,3232.00
2019-05-28T07:06:44.328Z,3224.00
2019-05-28T07:07:44.323Z,3216.00
2019-05-28T07:08:44.311Z,3208.00
2019-05-28T07:09:44.399Z,3200.00
2019-05-28T07:10:57.224Z,3200.00
2019-05-28T07:12:09.091Z,3200.00
2019-05-28T07:13:09.081Z,3200.00
2019-05-28T07:14:09.069Z,3196.00
2019-05-28T07:15:09.207Z,3188.00
2019-05-28T07:16:09.051Z,3184.00
2019-05-28T07:17:09.038Z,3180.00
2019-05-28T07:18:09.029Z,3172.00
2019-05-28T07:19:23.414Z,3172.00
2019-05-28T07:20:33.934Z,3168.00
2019-05-28T07:21:33.910Z,3168.00
2019-05-28T07:22:33.902Z,3164.00
2019-05-28T07:23:33.886Z,3156.00
2019-05-28T07:24:33.877Z,3148.00
2019-05-28T07:26:33.907Z,3140.00
2019-05-28T07:27:33.847Z,3136.00
2019-05-28T07:28:33.837Z,3132.00
2019-05-28T07:29:33.826Z,3124.00
2019-05-28T07:30:33.816Z,3120.00
2019-05-28T07:31:34.204Z,3116.00
2019-05-28T07:32:33.803Z,3116.00
2019-05-28T07:33:35.808Z,3112.00
2019-05-28T07:34:33.772Z,3108.00
2019-05-28T07:35:45.176Z,3112.00
2019-05-28T07:36:58.663Z,3100.00
2019-05-28T07:37:58.655Z,3096.00
2019-05-28T07:38:58.644Z,3092.00
2019-05-28T07:39:58.636Z,3096.00
2019-05-28T07:40:58.622Z,3096.00
2019-05-28T07:41:58.709Z,3096.00
2019-05-28T07:42:58.842Z,3096.00
2019-05-28T07:43:58.590Z,3092.00
2019-05-28T07:44:58.579Z,3092.00
2019-05-28T07:45:58.571Z,3092.00
2019-05-28T07:46:58.560Z,3092.00
2019-05-28T07:47:58.700Z,3096.00
2019-05-28T07:48:58.540Z,3096.00
2019-05-28T07:49:58.528Z,3096.00
2019-05-28T07:50:58.527Z,3092.00
2019-05-28T07:51:58.512Z,3096.00
2019-05-28T07:52:58.498Z,3092.00
2019-05-28T07:53:58.539Z,3092.00
2019-05-28T07:54:58.478Z,3088.00
2019-05-28T07:55:58.527Z,3092.00
2019-05-28T07:56:58.456Z,3088.00
2019-05-28T07:57:58.446Z,3088.00
2019-05-28T07:58:58.442Z,3088.00
2019-05-28T07:59:58.476Z,3084.00
2019-05-28T08:00:58.411Z,3080.00
2019-05-28T08:01:58.405Z,3080.00
2019-05-28T08:02:58.393Z,3076.00
2019-05-28T08:03:58.449Z,3072.00
2019-05-28T08:04:58.375Z,3072.00
2019-05-28T08:05:58.514Z,3072.00
2019-05-28T08:06:58.352Z,3060.00
2019-05-28T08:07:58.342Z,3056.00
2019-05-28T08:08:58.332Z,3052.00
2019-05-28T08:09:58.338Z,3048.00
2019-05-28T08:10:58.311Z,3044.00
2019-05-28T08:11:58.356Z,3036.00
2019-05-28T08:12:58.289Z,3032.00
2019-05-28T08:13:58.279Z,3032.00
2019-05-28T08:14:58.269Z,3024.00
2019-05-28T08:16:16.978Z,3024.00
2019-05-28T08:16:59.445Z,3016.00
2019-05-28T08:17:58.238Z,3016.00
2019-05-28T08:18:58.229Z,3012.00
2019-05-28T08:19:58.219Z,3012.00
2019-05-28T08:20:58.265Z,3008.00
2019-05-28T08:21:58.198Z,3008.00
2019-05-28T08:22:58.339Z,3004.00
2019-05-28T08:23:58.177Z,3000.00
2019-05-28T08:24:58.167Z,3000.00
2019-05-28T08:26:01.658Z,2996.00
2019-05-28T08:26:58.144Z,3000.00
2019-05-28T08:28:16.423Z,3000.00
2019-05-28T08:29:00.222Z,2996.00
2019-05-28T08:29:58.117Z,2988.00
2019-05-28T08:31:14.036Z,2980.00
2019-05-28T08:31:59.189Z,2984.00
2019-05-28T08:32:58.087Z,2980.00
2019-05-28T08:33:58.076Z,2976.00
2019-05-28T08:35:05.483Z,2976.00
2019-05-28T08:36:22.866Z,2976.00
2019-05-28T08:37:22.854Z,2968.00
2019-05-28T08:38:22.845Z,2968.00
2019-05-28T08:39:22.834Z,2968.00
2019-05-28T08:40:22.974Z,2968.00
2019-05-28T08:41:22.814Z,2964.00
2019-05-28T08:42:22.804Z,2964.00
2019-05-28T08:43:22.793Z,2960.00
2019-05-28T08:44:22.782Z,2960.00
2019-05-28T08:45:22.771Z,2968.00
2019-05-28T08:46:22.862Z,2960.00
2019-05-28T08:47:22.753Z,2960.00
2019-05-28T08:48:22.743Z,2964.00
2019-05-28T08:49:24.114Z,2960.00
2019-05-28T08:50:33.662Z,2960.00
2019-05-28T08:51:47.622Z,2952.00
2019-05-28T08:52:47.817Z,2952.00
2019-05-28T08:53:47.601Z,2948.00
2019-05-28T08:54:51.031Z,2944.00
2019-05-28T08:55:47.581Z,2940.00
2019-05-28T08:56:47.720Z,2936.00
2019-05-28T08:57:47.558Z,2932.00
2019-05-28T08:58:47.551Z,2924.00
2019-05-28T08:59:47.541Z,2920.00
2019-05-28T09:00:47.532Z,2916.00
2019-05-28T09:01:47.575Z,2908.00
2019-05-28T09:02:47.568Z,2900.00
2019-05-28T09:03:47.498Z,2900.00
2019-05-28T09:04:47.517Z,2892.00
2019-05-28T09:05:47.478Z,2880.00
2019-05-28T09:06:47.467Z,2876.00
2019-05-28T09:07:47.455Z,2872.00
2019-05-28T09:08:47.497Z,2868.00
2019-05-28T09:09:47.437Z,2864.00
2019-05-28T09:10:47.456Z,2860.00
2019-05-28T09:11:47.414Z,2852.00
2019-05-28T09:12:47.405Z,2848.00
2019-05-28T09:13:47.393Z,2848.00
2019-05-28T09:14:55.660Z,2844.00
2019-05-28T09:15:48.470Z,2840.00
2019-05-28T09:16:47.386Z,2836.00
2019-05-28T09:17:47.351Z,2828.00
2019-05-28T09:18:47.342Z,2824.00
2019-05-28T09:19:47.332Z,2820.00
2019-05-28T09:20:47.379Z,2816.00
2019-05-28T09:21:47.311Z,2816.00
2019-05-28T09:22:47.306Z,2812.00
2019-05-28T09:23:47.295Z,2812.00
2019-05-28T09:24:47.284Z,2808.00
2019-05-28T09:25:47.273Z,2808.00
2019-05-28T09:26:47.312Z,2804.00
2019-05-28T09:27:47.254Z,2804.00
2019-05-28T09:28:47.243Z,2804.00
2019-05-28T09:29:47.228Z,2796.00
2019-05-28T09:30:47.222Z,2792.00
2019-05-28T09:31:47.211Z,2788.00
2019-05-28T09:32:47.433Z,2788.00
2019-05-28T09:33:47.192Z,2784.00
2019-05-28T09:34:47.182Z,2780.00
2019-05-28T09:36:06.252Z,2780.00
2019-05-28T09:36:48.255Z,2776.00
2019-05-28T09:37:47.148Z,2772.00
2019-05-28T09:38:47.189Z,2772.00
2019-05-28T09:39:47.128Z,2772.00
2019-05-28T09:40:50.696Z,2768.00
2019-05-28T09:41:47.107Z,2764.00
2019-05-28T09:42:47.095Z,2760.00
2019-05-28T09:43:47.085Z,2756.00
2019-05-28T09:44:47.126Z,2756.00
2019-05-28T09:45:47.182Z,2756.00
2019-05-28T09:46:47.057Z,2760.00
2019-05-28T09:47:47.044Z,2756.00
2019-05-28T09:48:47.033Z,2756.00
2019-05-28T09:49:47.034Z,2756.00
2019-05-28T09:50:47.215Z,2756.00
2019-05-28T09:51:47.013Z,2752.00
2019-05-28T09:52:54.349Z,2752.00
2019-05-28T09:54:11.792Z,2752.00
2019-05-28T09:55:11.782Z,2756.00
2019-05-28T09:56:11.890Z,2748.00
2019-05-28T09:57:11.766Z,2744.00
2019-05-28T09:58:11.752Z,2744.00
2019-05-28T09:59:11.740Z,2748.00
2019-05-28T10:00:14.927Z,2740.00
2019-05-28T10:01:11.720Z,2740.00
2019-05-28T10:02:11.762Z,2740.00
2019-05-28T10:03:11.700Z,2736.00
2019-05-28T10:04:11.777Z,2736.00
2019-05-28T10:05:11.681Z,2732.00
2019-05-28T10:06:16.848Z,2732.00
2019-05-28T10:07:12.972Z,2732.00
2019-05-28T10:08:11.647Z,2732.00
2019-05-28T10:09:11.639Z,2732.00
2019-05-28T10:10:11.663Z,2728.00
2019-05-28T10:11:11.618Z,2724.00
2019-05-28T10:12:11.611Z,2720.00
2019-05-28T10:13:11.650Z,2724.00
2019-05-28T10:14:11.590Z,2712.00
2019-05-28T10:15:11.577Z,2712.00
2019-05-28T10:16:11.605Z,2708.00
2019-05-28T10:17:11.557Z,2704.00
2019-05-28T10:18:11.549Z,2700.00
2019-05-28T10:19:11.586Z,2696.00
2019-05-28T10:20:11.527Z,2696.00
2019-05-28T10:21:18.235Z,2692.00
2019-05-28T10:22:12.601Z,2692.00
2019-05-28T10:23:11.512Z,2688.00
2019-05-28T10:24:11.491Z,2688.00
2019-05-28T10:25:11.626Z,2688.00
2019-05-28T10:26:11.465Z,2688.00
2019-05-28T10:27:11.461Z,2688.00
2019-05-28T10:28:11.442Z,2684.00
2019-05-28T10:29:11.433Z,2680.00
2019-05-28T10:30:11.421Z,2676.00
2019-05-28T10:31:11.461Z,2676.00
2019-05-28T10:32:11.402Z,2672.00
2019-05-28T10:33:11.390Z,2668.00
2019-05-28T10:34:11.381Z,2672.00
2019-05-28T10:35:11.373Z,2672.00
2019-05-28T10:36:11.360Z,2672.00
2019-05-28T10:37:11.453Z,2668.00
2019-05-28T10:38:15.079Z,2664.00
2019-05-28T10:39:11.400Z,2660.00
2019-05-28T10:40:11.321Z,2660.00
2019-05-28T10:41:11.313Z,2656.00
2019-05-28T10:42:11.301Z,2656.00
2019-05-28T10:43:11.441Z,2652.00
2019-05-28T10:44:11.280Z,2652.00
2019-05-28T10:45:11.277Z,2648.00
2019-05-28T10:46:11.348Z,2640.00
2019-05-28T10:47:11.248Z,2644.00
2019-05-28T10:48:11.243Z,2640.00
2019-05-28T10:49:11.336Z,2640.00
2019-05-28T10:50:11.223Z,2640.00
2019-05-28T10:51:11.343Z,2640.00
2019-05-28T10:52:11.196Z,2636.00
2019-05-28T10:53:11.186Z,2632.00
2019-05-28T10:54:11.182Z,2636.00
2019-05-28T10:55:11.216Z,2628.00
2019-05-28T10:56:11.245Z,2632.00
2019-05-28T10:57:11.150Z,2628.00
2019-05-28T10:58:11.136Z,2624.00
2019-05-28T10:59:11.124Z,2624.00
2019-05-28T11:00:11.274Z,2620.00
2019-05-28T11:01:11.103Z,2616.00
2019-05-28T11:02:11.092Z,2616.00
2019-05-28T11:03:11.082Z,2612.00
2019-05-28T11:04:11.077Z,2608.00
2019-05-28T11:05:11.064Z,2608.00
2019-05-28T11:06:11.150Z,2600.00
2019-05-28T11:07:11.046Z,2600.00
2019-05-28T11:08:11.032Z,2600.00
2019-05-28T11:09:11.021Z,2596.00
2019-05-28T11:10:23.233Z,2592.00
2019-05-28T11:11:35.891Z,2592.00
2019-05-28T11:12:35.862Z,2588.00
2019-05-28T11:13:49.964Z,2588.00
2019-05-28T11:15:00.644Z,2584.00
2019-05-28T11:16:00.634Z,2580.00
2019-05-28T11:17:01.050Z,2576.00
2019-05-28T11:18:00.619Z,2576.00
2019-05-28T11:19:00.606Z,2572.00
2019-05-28T11:20:00.594Z,2568.00
2019-05-28T11:21:00.587Z,2564.00
2019-05-28T11:22:00.571Z,2564.00
2019-05-28T11:23:00.619Z,2564.00
2019-05-28T11:24:00.555Z,2564.00
2019-05-28T11:25:00.540Z,2560.00
2019-05-28T11:26:00.533Z,2560.00
2019-05-28T11:27:00.523Z,2556.00
2019-05-28T11:28:00.512Z,2556.00
2019-05-28T11:29:00.559Z,2552.00
2019-05-28T11:30:00.494Z,2552.00
2019-05-28T11:31:00.484Z,2548.00
2019-05-28T11:32:00.471Z,2548.00
2019-05-28T11:33:00.462Z,2544.00
2019-05-28T11:34:00.461Z,2536.00
2019-05-28T11:35:00.692Z,2536.00
2019-05-28T11:36:00.429Z,2532.00
2019-05-28T11:37:09.407Z,2528.00
2019-05-28T11:38:25.222Z,2524.00
2019-05-28T11:39:25.218Z,2520.00
2019-05-28T11:40:25.252Z,2520.00
2019-05-28T11:41:40.883Z,2516.00
2019-05-28T11:42:26.279Z,2516.00
2019-05-28T11:43:25.178Z,2512.00
2019-05-28T11:44:25.185Z,2504.00
2019-05-28T11:45:25.151Z,2504.00
2019-05-28T11:46:25.243Z,2500.00
2019-05-28T11:47:25.196Z,2496.00
2019-05-28T11:48:25.125Z,2492.00
2019-05-28T11:49:25.120Z,2488.00
2019-05-28T11:50:25.098Z,2488.00
2019-05-28T11:51:25.437Z,2484.00
2019-05-28T11:52:25.086Z,2480.00
2019-05-28T11:53:25.070Z,2480.00
2019-05-28T11:54:25.062Z,2476.00
2019-05-28T11:55:25.056Z,2472.00
2019-05-28T11:56:25.388Z,2464.00
2019-05-28T11:57:25.029Z,2464.00
2019-05-28T11:58:25.022Z,2456.00
2019-05-28T11:59:25.011Z,2452.00
2019-05-28T12:00:25.001Z,2448.00
2019-05-28T12:01:34.574Z,2444.00
2019-05-28T12:02:49.840Z,2440.00
2019-05-28T12:03:49.828Z,2432.00
2019-05-28T12:04:49.819Z,2428.00
2019-05-28T12:05:49.809Z,2424.00
2019-05-28T12:06:49.799Z,2420.00
2019-05-28T12:07:51.884Z,2416.00
2019-05-28T12:08:49.777Z,2412.00